sensor_id;sensor_type;location;lat;lon;timestamp;pressure;altitude;pressure_sealevel;temperature;humidity
50166;BME280;36071;48.140;11.516;2022-07-23T00:01:59;95580.0;;;25.8;47.3
50166;BME280;36071;48.140;11.516;2022-07-23T00:06:59;95570.0;;;25.8;46.7
50166;BME280;36071;48.140;11.516;2022-07-23T00:11:59;95560.0;;;25.7;46.6
50166;BME280;36071;48.140;11.516;2022-07-23T00:17:04;95560.0;;;25.7;46.1
50166;BME280;36071;48.140;11.516;2022-07-23T00:21:59;95560.0;;;25.6;45.7
50166;BME280;36071;48.140;11.516;2022-07-23T00:26:59;95570.0;;;25.6;45.2
50166;BME280;36071;48.140;11.516;2022-07-23T00:31:59;95600.0;;;25.6;45.8
50166;BME280;36071;48.140;11.516;2022-07-23T00:36:59;95580.0;;;25.5;46.5
50166;BME280;36071;48.140;11.516;2022-07-23T00:41:59;95600.0;;;25.3;46.9
50166;BME280;36071;48.140;11.516;2022-07-23T00:46:59;95610.0;;;25.2;47.4
50166;BME280;36071;48.140;11.516;2022-07-23T00:52:01;95610.0;;;25.2;47.5
50166;BME280;36071;48.140;11.516;2022-07-23T00:56:59;95620.0;;;25.0;47.6
50166;BME280;36071;48.140;11.516;2022-07-23T01:01:59;95640.0;;;24.9;48.0
50166;BME280;36071;48.140;11.516;2022-07-23T01:07:00;95690.0;;;24.9;48.5
50166;BME280;36071;48.140;11.516;2022-07-23T01:11:59;95700.0;;;24.8;49.3
50166;BME280;36071;48.140;11.516;2022-07-23T01:16:59;95730.0;;;24.7;49.9
50166;BME280;36071;48.140;11.516;2022-07-23T01:22:01;95790.0;;;24.7;49.6
50166;BME280;36071;48.140;11.516;2022-07-23T01:26:59;95810.0;;;24.3;47.7
50166;BME280;36071;48.140;11.516;2022-07-23T01:31:59;95850.0;;;23.0;50.8
50166;BME280;36071;48.140;11.516;2022-07-23T01:36:59;95840.0;;;22.8;51.8
50166;BME280;36071;48.140;11.516;2022-07-23T01:41:59;95770.0;;;22.5;54.6
50166;BME280;36071;48.140;11.516;2022-07-23T01:46:59;95760.0;;;22.3;57.2
50166;BME280;36071;48.140;11.516;2022-07-23T01:51:59;95750.0;;;22.2;58.1
50166;BME280;36071;48.140;11.516;2022-07-23T01:56:59;95740.0;;;22.0;60.6
50166;BME280;36071;48.140;11.516;2022-07-23T02:01:59;95730.0;;;22.1;61.2
50166;BME280;36071;48.140;11.516;2022-07-23T02:06:59;95720.0;;;21.8;61.2
50166;BME280;36071;48.140;11.516;2022-07-23T02:11:59;95750.0;;;21.9;60.8
50166;BME280;36071;48.140;11.516;2022-07-23T02:16:59;95730.0;;;21.9;61.2
50166;BME280;36071;48.140;11.516;2022-07-23T02:21:59;95730.0;;;21.6;62.3
50166;BME280;36071;48.140;11.516;2022-07-23T02:26:59;95700.0;;;21.8;62.6
50166;BME280;36071;48.140;11.516;2022-07-23T02:32:00;95680.0;;;21.7;63.2
50166;BME280;36071;48.140;11.516;2022-07-23T02:36:59;95670.0;;;21.7;63.2
50166;BME280;36071;48.140;11.516;2022-07-23T02:42:00;95660.0;;;21.7;64.4
50166;BME280;36071;48.140;11.516;2022-07-23T02:46:59;95660.0;;;21.7;65.0
50166;BME280;36071;48.140;11.516;2022-07-23T02:51:59;95700.0;;;21.5;66.0
50166;BME280;36071;48.140;11.516;2022-07-23T02:56:59;95730.0;;;21.7;62.9
50166;BME280;36071;48.140;11.516;2022-07-23T03:01:59;95810.0;;;21.3;64.4
50166;BME280;36071;48.140;11.516;2022-07-23T03:06:59;95790.0;;;21.4;64.2
50166;BME280;36071;48.140;11.516;2022-07-23T03:12:00;95780.0;;;21.3;63.4
50166;BME280;36071;48.140;11.516;2022-07-23T03:16:59;95760.0;;;21.3;63.9
50166;BME280;36071;48.140;11.516;2022-07-23T03:21:59;95770.0;;;21.4;63.9
50166;BME280;36071;48.140;11.516;2022-07-23T03:26:59;95750.0;;;21.3;64.4
50166;BME280;36071;48.140;11.516;2022-07-23T03:31:59;95730.0;;;21.3;64.4
50166;BME280;36071;48.140;11.516;2022-07-23T03:36:59;95670.0;;;21.1;65.0
50166;BME280;36071;48.140;11.516;2022-07-23T03:41:59;95590.0;;;21.0;65.0
50166;BME280;36071;48.140;11.516;2022-07-23T03:46:59;95650.0;;;21.2;63.3
50166;BME280;36071;48.140;11.516;2022-07-23T03:52:00;95670.0;;;21.4;61.9
50166;BME280;36071;48.140;11.516;2022-07-23T03:56:59;95670.0;;;21.4;61.2
50166;BME280;36071;48.140;11.516;2022-07-23T04:01:59;95670.0;;;21.5;62.1
50166;BME280;36071;48.140;11.516;2022-07-23T04:06:59;95670.0;;;21.5;61.0
50166;BME280;36071;48.140;11.516;2022-07-23T04:11:59;95670.0;;;21.5;61.1
50166;BME280;36071;48.140;11.516;2022-07-23T04:17:00;95660.0;;;21.5;61.5
50166;BME280;36071;48.140;11.516;2022-07-23T04:21:59;95640.0;;;21.5;62.4
50166;BME280;36071;48.140;11.516;2022-07-23T04:26:59;95620.0;;;21.5;61.7
50166;BME280;36071;48.140;11.516;2022-07-23T04:32:00;95610.0;;;21.5;61.9
50166;BME280;36071;48.140;11.516;2022-07-23T04:36:59;95620.0;;;21.4;62.5
50166;BME280;36071;48.140;11.516;2022-07-23T04:42:00;95630.0;;;21.4;62.9
50166;BME280;36071;48.140;11.516;2022-07-23T04:46:59;95630.0;;;21.4;63.3
50166;BME280;36071;48.140;11.516;2022-07-23T04:51:59;95620.0;;;21.4;62.7
50166;BME280;36071;48.140;11.516;2022-07-23T04:56:59;95590.0;;;21.3;62.8
50166;BME280;36071;48.140;11.516;2022-07-23T05:01:59;95620.0;;;21.4;62.7
50166;BME280;36071;48.140;11.516;2022-07-23T05:06:59;95630.0;;;21.5;61.6
50166;BME280;36071;48.140;11.516;2022-07-23T05:12:00;95600.0;;;21.5;61.9
50166;BME280;36071;48.140;11.516;2022-07-23T05:16:59;95610.0;;;21.5;61.5
50166;BME280;36071;48.140;11.516;2022-07-23T05:21:59;95610.0;;;21.5;61.4
50166;BME280;36071;48.140;11.516;2022-07-23T05:26:59;95620.0;;;21.5;60.4
50166;BME280;36071;48.140;11.516;2022-07-23T05:31:59;95630.0;;;21.5;59.9
50166;BME280;36071;48.140;11.516;2022-07-23T05:36:59;95640.0;;;21.5;59.9
50166;BME280;36071;48.140;11.516;2022-07-23T05:41:59;95620.0;;;21.6;59.8
50166;BME280;36071;48.140;11.516;2022-07-23T05:47:00;95640.0;;;21.6;59.6
50166;BME280;36071;48.140;11.516;2022-07-23T05:52:02;95660.0;;;21.5;60.7
50166;BME280;36071;48.140;11.516;2022-07-23T05:56:59;95680.0;;;21.6;60.7
50166;BME280;36071;48.140;11.516;2022-07-23T06:01:59;95680.0;;;21.6;61.0
50166;BME280;36071;48.140;11.516;2022-07-23T06:06:59;95670.0;;;21.5;61.2
50166;BME280;36071;48.140;11.516;2022-07-23T06:12:00;95660.0;;;21.5;61.7
50166;BME280;36071;48.140;11.516;2022-07-23T06:16:59;95640.0;;;21.5;62.0
50166;BME280;36071;48.140;11.516;2022-07-23T06:21:59;95620.0;;;21.4;61.5
50166;BME280;36071;48.140;11.516;2022-07-23T06:27:00;95610.0;;;21.5;62.4
50166;BME280;36071;48.140;11.516;2022-07-23T06:31:59;95620.0;;;21.5;61.5
50166;BME280;36071;48.140;11.516;2022-07-23T06:36:59;95630.0;;;21.6;62.7
50166;BME280;36071;48.140;11.516;2022-07-23T06:41:59;95670.0;;;21.6;62.0
50166;BME280;36071;48.140;11.516;2022-07-23T06:46:59;95700.0;;;21.4;62.7
50166;BME280;36071;48.140;11.516;2022-07-23T06:51:59;95700.0;;;21.4;62.4
50166;BME280;36071;48.140;11.516;2022-07-23T06:57:00;95700.0;;;21.4;62.8
50166;BME280;36071;48.140;11.516;2022-07-23T07:01:59;95720.0;;;21.4;63.1
50166;BME280;36071;48.140;11.516;2022-07-23T07:07:00;95710.0;;;21.4;63.6
50166;BME280;36071;48.140;11.516;2022-07-23T07:11:59;95710.0;;;21.5;63.5
50166;BME280;36071;48.140;11.516;2022-07-23T07:16:59;95690.0;;;21.6;63.8
50166;BME280;36071;48.140;11.516;2022-07-23T07:21:59;95700.0;;;21.7;63.6
50166;BME280;36071;48.140;11.516;2022-07-23T07:27:00;95700.0;;;21.7;64.9
50166;BME280;36071;48.140;11.516;2022-07-23T07:31:59;95700.0;;;21.8;65.3
50166;BME280;36071;48.140;11.516;2022-07-23T07:37:00;95720.0;;;21.6;65.6
50166;BME280;36071;48.140;11.516;2022-07-23T07:41:59;95720.0;;;21.6;65.9
50166;BME280;36071;48.140;11.516;2022-07-23T07:47:00;95720.0;;;21.6;66.2
50166;BME280;36071;48.140;11.516;2022-07-23T07:51:59;95740.0;;;21.6;66.2
50166;BME280;36071;48.140;11.516;2022-07-23T07:57:00;95750.0;;;21.7;66.5
50166;BME280;36071;48.140;11.516;2022-07-23T08:01:59;95750.0;;;21.7;65.7
50166;BME280;36071;48.140;11.516;2022-07-23T08:06:59;95720.0;;;21.8;65.4
50166;BME280;36071;48.140;11.516;2022-07-23T08:11:59;95720.0;;;21.8;64.9
50166;BME280;36071;48.140;11.516;2022-07-23T08:17:03;95730.0;;;21.8;65.6
50166;BME280;36071;48.140;11.516;2022-07-23T08:21:59;95720.0;;;21.9;65.0
50166;BME280;36071;48.140;11.516;2022-07-23T08:26:59;95730.0;;;21.9;63.8
50166;BME280;36071;48.140;11.516;2022-07-23T08:31:59;95730.0;;;21.9;63.3
50166;BME280;36071;48.140;11.516;2022-07-23T08:36:59;95730.0;;;22.1;61.8
50166;BME280;36071;48.140;11.516;2022-07-23T08:42:00;95730.0;;;22.3;60.9
50166;BME280;36071;48.140;11.516;2022-07-23T08:46:59;95720.0;;;22.5;60.3
50166;BME280;36071;48.140;11.516;2022-07-23T08:51:59;95740.0;;;22.5;60.2
50166;BME280;36071;48.140;11.516;2022-07-23T08:57:00;95750.0;;;22.5;59.6
50166;BME280;36071;48.140;11.516;2022-07-23T09:01:59;95760.0;;;22.5;59.9
50166;BME280;36071;48.140;11.516;2022-07-23T09:07:00;95780.0;;;22.6;60.5
50166;BME280;36071;48.140;11.516;2022-07-23T09:12:03;95780.0;;;22.8;61.0
50166;BME280;36071;48.140;11.516;2022-07-23T09:17:07;95790.0;;;23.0;60.2
50166;BME280;36071;48.140;11.516;2022-07-23T09:22:20;95780.0;;;23.0;59.9
50166;BME280;36071;48.140;11.516;2022-07-23T09:26:59;95790.0;;;23.7;58.1
50166;BME280;36071;48.140;11.516;2022-07-23T09:32:00;95780.0;;;24.5;55.7
50166;BME280;36071;48.140;11.516;2022-07-23T09:37:08;95790.0;;;25.3;53.3
50166;BME280;36071;48.140;11.516;2022-07-23T09:42:12;95790.0;;;25.0;52.8
50166;BME280;36071;48.140;11.516;2022-07-23T09:47:00;95780.0;;;25.8;51.5
50166;BME280;36071;48.140;11.516;2022-07-23T09:52:00;95770.0;;;26.3;47.2
50166;BME280;36071;48.140;11.516;2022-07-23T09:57:00;95770.0;;;26.7;45.8
50166;BME280;36071;48.140;11.516;2022-07-23T10:02:00;95760.0;;;26.3;45.8
50166;BME280;36071;48.140;11.516;2022-07-23T10:07:00;95760.0;;;26.3;46.2
50166;BME280;36071;48.140;11.516;2022-07-23T10:12:00;95770.0;;;26.2;46.3
50166;BME280;36071;48.140;11.516;2022-07-23T10:17:00;95750.0;;;26.8;45.1
50166;BME280;36071;48.140;11.516;2022-07-23T10:22:00;95750.0;;;27.3;43.2
50166;BME280;36071;48.140;11.516;2022-07-23T10:27:02;95750.0;;;27.6;43.1
50166;BME280;36071;48.140;11.516;2022-07-23T10:32:00;95740.0;;;27.5;43.1
50166;BME280;36071;48.140;11.516;2022-07-23T10:42:07;95730.0;;;27.4;42.2
50166;BME280;36071;48.140;11.516;2022-07-23T10:47:00;95720.0;;;27.1;42.6
50166;BME280;36071;48.140;11.516;2022-07-23T10:52:19;95730.0;;;27.0;42.3
50166;BME280;36071;48.140;11.516;2022-07-23T10:57:07;95730.0;;;27.2;42.1
50166;BME280;36071;48.140;11.516;2022-07-23T11:07:07;95720.0;;;26.8;42.9
50166;BME280;36071;48.140;11.516;2022-07-23T11:12:31;95730.0;;;26.6;43.5
50166;BME280;36071;48.140;11.516;2022-07-23T11:17:00;95720.0;;;26.3;43.9
50166;BME280;36071;48.140;11.516;2022-07-23T11:27:00;95720.0;;;26.2;44.3
50166;BME280;36071;48.140;11.516;2022-07-23T11:32:00;95720.0;;;26.1;44.1
50166;BME280;36071;48.140;11.516;2022-07-23T11:37:00;95730.0;;;25.9;44.4
50166;BME280;36071;48.140;11.516;2022-07-23T11:42:00;95710.0;;;25.8;44.7
50166;BME280;36071;48.140;11.516;2022-07-23T11:47:00;95710.0;;;25.7;45.0
50166;BME280;36071;48.140;11.516;2022-07-23T11:52:03;95710.0;;;25.6;45.5
50166;BME280;36071;48.140;11.516;2022-07-23T11:57:00;95720.0;;;25.6;46.2
50166;BME280;36071;48.140;11.516;2022-07-23T12:02:00;95720.0;;;25.5;46.1
50166;BME280;36071;48.140;11.516;2022-07-23T12:07:00;95720.0;;;25.5;46.4
50166;BME280;36071;48.140;11.516;2022-07-23T12:12:00;95730.0;;;25.6;46.4
50166;BME280;36071;48.140;11.516;2022-07-23T12:17:07;95720.0;;;25.6;46.7
50166;BME280;36071;48.140;11.516;2022-07-23T12:22:00;95720.0;;;25.6;47.1
50166;BME280;36071;48.140;11.516;2022-07-23T12:27:07;95720.0;;;25.5;47.1
50166;BME280;36071;48.140;11.516;2022-07-23T12:32:00;95710.0;;;25.3;47.6
50166;BME280;36071;48.140;11.516;2022-07-23T12:37:00;95710.0;;;25.4;47.5
50166;BME280;36071;48.140;11.516;2022-07-23T12:42:00;95720.0;;;25.3;47.7
50166;BME280;36071;48.140;11.516;2022-07-23T12:47:00;95710.0;;;25.3;47.8
50166;BME280;36071;48.140;11.516;2022-07-23T12:52:00;95720.0;;;25.2;48.0
50166;BME280;36071;48.140;11.516;2022-07-23T12:57:00;95720.0;;;25.2;48.1
50166;BME280;36071;48.140;11.516;2022-07-23T13:02:00;95720.0;;;25.3;48.0
50166;BME280;36071;48.140;11.516;2022-07-23T13:07:00;95720.0;;;25.4;48.2
50166;BME280;36071;48.140;11.516;2022-07-23T13:12:00;95730.0;;;25.4;48.2
50166;BME280;36071;48.140;11.516;2022-07-23T13:17:00;95730.0;;;25.4;48.1
50166;BME280;36071;48.140;11.516;2022-07-23T13:22:00;95740.0;;;25.2;48.7
50166;BME280;36071;48.140;11.516;2022-07-23T13:27:00;95730.0;;;25.2;49.0
50166;BME280;36071;48.140;11.516;2022-07-23T13:32:00;95730.0;;;25.3;49.1
50166;BME280;36071;48.140;11.516;2022-07-23T13:37:00;95730.0;;;25.4;49.0
50166;BME280;36071;48.140;11.516;2022-07-23T13:42:00;95720.0;;;25.5;48.7
50166;BME280;36071;48.140;11.516;2022-07-23T13:47:00;95720.0;;;25.8;48.4
50166;BME280;36071;48.140;11.516;2022-07-23T13:52:00;95730.0;;;25.6;48.5
50166;BME280;36071;48.140;11.516;2022-07-23T13:57:00;95720.0;;;25.5;48.4
50166;BME280;36071;48.140;11.516;2022-07-23T14:02:00;95720.0;;;25.4;48.9
50166;BME280;36071;48.140;11.516;2022-07-23T14:07:00;95710.0;;;25.4;48.9
50166;BME280;36071;48.140;11.516;2022-07-23T14:12:00;95720.0;;;25.4;48.3
50166;BME280;36071;48.140;11.516;2022-07-23T14:17:00;95700.0;;;25.4;48.2
50166;BME280;36071;48.140;11.516;2022-07-23T14:22:00;95710.0;;;25.3;48.5
50166;BME280;36071;48.140;11.516;2022-07-23T14:27:00;95720.0;;;25.3;48.7
50166;BME280;36071;48.140;11.516;2022-07-23T14:32:00;95720.0;;;25.4;48.5
50166;BME280;36071;48.140;11.516;2022-07-23T14:37:00;95720.0;;;25.3;48.4
50166;BME280;36071;48.140;11.516;2022-07-23T14:42:00;95700.0;;;25.3;48.8
50166;BME280;36071;48.140;11.516;2022-07-23T14:47:00;95700.0;;;25.3;49.1
50166;BME280;36071;48.140;11.516;2022-07-23T14:52:00;95690.0;;;25.5;48.7
50166;BME280;36071;48.140;11.516;2022-07-23T14:57:00;95680.0;;;25.5;48.5
50166;BME280;36071;48.140;11.516;2022-07-23T15:02:00;95670.0;;;25.4;49.0
50166;BME280;36071;48.140;11.516;2022-07-23T15:07:00;95680.0;;;25.4;49.1
50166;BME280;36071;48.140;11.516;2022-07-23T15:12:00;95690.0;;;25.4;49.3
50166;BME280;36071;48.140;11.516;2022-07-23T15:17:00;95670.0;;;25.5;49.4
50166;BME280;36071;48.140;11.516;2022-07-23T15:22:00;95680.0;;;25.7;48.9
50166;BME280;36071;48.140;11.516;2022-07-23T15:27:00;95700.0;;;25.8;48.9
50166;BME280;36071;48.140;11.516;2022-07-23T15:32:00;95700.0;;;25.9;48.7
50166;BME280;36071;48.140;11.516;2022-07-23T15:37:00;95700.0;;;26.0;47.9
50166;BME280;36071;48.140;11.516;2022-07-23T15:42:00;95710.0;;;26.0;47.9
50166;BME280;36071;48.140;11.516;2022-07-23T15:47:00;95700.0;;;26.1;47.6
50166;BME280;36071;48.140;11.516;2022-07-23T15:57:00;95700.0;;;26.2;47.5
50166;BME280;36071;48.140;11.516;2022-07-23T16:02:00;95690.0;;;26.1;48.0
50166;BME280;36071;48.140;11.516;2022-07-23T16:07:00;95700.0;;;26.1;48.4
50166;BME280;36071;48.140;11.516;2022-07-23T16:12:00;95700.0;;;26.1;48.6
50166;BME280;36071;48.140;11.516;2022-07-23T16:17:00;95700.0;;;26.0;48.9
50166;BME280;36071;48.140;11.516;2022-07-23T16:22:00;95690.0;;;25.9;49.1
50166;BME280;36071;48.140;11.516;2022-07-23T16:27:00;95700.0;;;25.9;49.2
50166;BME280;36071;48.140;11.516;2022-07-23T16:32:00;95700.0;;;25.8;49.8
50166;BME280;36071;48.140;11.516;2022-07-23T16:37:00;95700.0;;;25.9;50.0
50166;BME280;36071;48.140;11.516;2022-07-23T16:42:00;95700.0;;;26.0;50.0
50166;BME280;36071;48.140;11.516;2022-07-23T16:47:00;95700.0;;;25.9;50.4
50166;BME280;36071;48.140;11.516;2022-07-23T16:52:00;95700.0;;;25.8;50.5
50166;BME280;36071;48.140;11.516;2022-07-23T16:57:00;95700.0;;;25.8;50.9
50166;BME280;36071;48.140;11.516;2022-07-23T17:02:00;95700.0;;;25.8;51.1
50166;BME280;36071;48.140;11.516;2022-07-23T17:12:00;95720.0;;;25.8;51.5
50166;BME280;36071;48.140;11.516;2022-07-23T17:17:00;95710.0;;;25.7;51.7
50166;BME280;36071;48.140;11.516;2022-07-23T17:22:00;95720.0;;;25.7;52.0
50166;BME280;36071;48.140;11.516;2022-07-23T17:27:00;95720.0;;;25.7;51.9
50166;BME280;36071;48.140;11.516;2022-07-23T17:32:00;95720.0;;;25.7;52.1
50166;BME280;36071;48.140;11.516;2022-07-23T17:37:00;95710.0;;;25.7;52.0
50166;BME280;36071;48.140;11.516;2022-07-23T17:42:00;95710.0;;;25.8;52.1
50166;BME280;36071;48.140;11.516;2022-07-23T17:47:00;95710.0;;;25.8;52.3
50166;BME280;36071;48.140;11.516;2022-07-23T17:52:00;95720.0;;;25.7;52.1
50166;BME280;36071;48.140;11.516;2022-07-23T17:57:00;95710.0;;;25.7;52.3
50166;BME280;36071;48.140;11.516;2022-07-23T18:02:00;95730.0;;;25.7;52.7
50166;BME280;36071;48.140;11.516;2022-07-23T18:07:00;95730.0;;;25.7;52.9
50166;BME280;36071;48.140;11.516;2022-07-23T18:12:00;95740.0;;;25.6;52.7
50166;BME280;36071;48.140;11.516;2022-07-23T18:17:00;95750.0;;;25.6;52.8
50166;BME280;36071;48.140;11.516;2022-07-23T18:22:00;95750.0;;;25.6;53.4
50166;BME280;36071;48.140;11.516;2022-07-23T18:27:00;95750.0;;;25.5;53.7
50166;BME280;36071;48.140;11.516;2022-07-23T18:32:00;95760.0;;;25.4;53.8
50166;BME280;36071;48.140;11.516;2022-07-23T18:37:00;95780.0;;;25.4;54.1
50166;BME280;36071;48.140;11.516;2022-07-23T18:42:00;95770.0;;;25.4;54.0
50166;BME280;36071;48.140;11.516;2022-07-23T18:47:00;95760.0;;;25.3;53.9
50166;BME280;36071;48.140;11.516;2022-07-23T18:52:00;95780.0;;;25.2;54.2
50166;BME280;36071;48.140;11.516;2022-07-23T18:57:00;95780.0;;;25.2;54.3
50166;BME280;36071;48.140;11.516;2022-07-23T19:02:00;95790.0;;;25.1;54.6
50166;BME280;36071;48.140;11.516;2022-07-23T19:07:00;95800.0;;;25.2;54.2
50166;BME280;36071;48.140;11.516;2022-07-23T19:12:00;95810.0;;;25.1;54.4
50166;BME280;36071;48.140;11.516;2022-07-23T19:17:00;95820.0;;;25.0;54.2
50166;BME280;36071;48.140;11.516;2022-07-23T19:22:00;95830.0;;;24.9;54.0
50166;BME280;36071;48.140;11.516;2022-07-23T19:27:00;95820.0;;;25.0;53.6
50166;BME280;36071;48.140;11.516;2022-07-23T19:32:00;95850.0;;;24.9;53.8
50166;BME280;36071;48.140;11.516;2022-07-23T19:37:00;95850.0;;;24.8;53.0
50166;BME280;36071;48.140;11.516;2022-07-23T19:42:00;95840.0;;;24.8;52.9
50166;BME280;36071;48.140;11.516;2022-07-23T19:47:00;95850.0;;;24.7;53.0
50166;BME280;36071;48.140;11.516;2022-07-23T19:52:00;95860.0;;;24.6;53.1
50166;BME280;36071;48.140;11.516;2022-07-23T19:57:00;95860.0;;;24.6;53.0
50166;BME280;36071;48.140;11.516;2022-07-23T20:02:00;95870.0;;;24.6;52.8
50166;BME280;36071;48.140;11.516;2022-07-23T20:07:00;95860.0;;;24.6;53.0
50166;BME280;36071;48.140;11.516;2022-07-23T20:12:00;95860.0;;;24.5;53.0
50166;BME280;36071;48.140;11.516;2022-07-23T20:17:00;95860.0;;;24.5;53.3
50166;BME280;36071;48.140;11.516;2022-07-23T20:22:00;95870.0;;;24.6;53.3
50166;BME280;36071;48.140;11.516;2022-07-23T20:27:00;95880.0;;;24.5;52.8
50166;BME280;36071;48.140;11.516;2022-07-23T20:32:00;95880.0;;;24.5;53.2
50166;BME280;36071;48.140;11.516;2022-07-23T20:37:00;95870.0;;;24.5;53.3
50166;BME280;36071;48.140;11.516;2022-07-23T20:42:00;95880.0;;;24.5;53.7
50166;BME280;36071;48.140;11.516;2022-07-23T20:47:00;95880.0;;;24.5;53.9
50166;BME280;36071;48.140;11.516;2022-07-23T20:52:00;95880.0;;;24.4;53.5
50166;BME280;36071;48.140;11.516;2022-07-23T21:02:00;95890.0;;;24.3;53.8
50166;BME280;36071;48.140;11.516;2022-07-23T21:07:00;95890.0;;;24.3;54.2
50166;BME280;36071;48.140;11.516;2022-07-23T21:12:00;95890.0;;;24.2;53.9
50166;BME280;36071;48.140;11.516;2022-07-23T21:17:00;95900.0;;;24.2;54.4
50166;BME280;36071;48.140;11.516;2022-07-23T21:22:00;95890.0;;;24.2;54.3
50166;BME280;36071;48.140;11.516;2022-07-23T21:27:00;95890.0;;;24.1;54.8
50166;BME280;36071;48.140;11.516;2022-07-23T21:32:00;95890.0;;;24.0;54.8
50166;BME280;36071;48.140;11.516;2022-07-23T21:37:00;95890.0;;;24.1;54.7
50166;BME280;36071;48.140;11.516;2022-07-23T21:42:00;95890.0;;;24.1;54.8
50166;BME280;36071;48.140;11.516;2022-07-23T21:47:00;95890.0;;;24.0;54.9
50166;BME280;36071;48.140;11.516;2022-07-23T21:52:00;95890.0;;;23.9;54.9
50166;BME280;36071;48.140;11.516;2022-07-23T21:57:00;95880.0;;;23.8;55.1
50166;BME280;36071;48.140;11.516;2022-07-23T22:02:00;95900.0;;;23.8;55.6
50166;BME280;36071;48.140;11.516;2022-07-23T22:07:11;95900.0;;;23.8;55.9
50166;BME280;36071;48.140;11.516;2022-07-23T22:12:00;95890.0;;;23.7;56.1
50166;BME280;36071;48.140;11.516;2022-07-23T22:22:00;95890.0;;;23.6;56.7
50166;BME280;36071;48.140;11.516;2022-07-23T22:27:00;95880.0;;;23.6;56.9
50166;BME280;36071;48.140;11.516;2022-07-23T22:32:00;95880.0;;;23.5;57.8
50166;BME280;36071;48.140;11.516;2022-07-23T22:37:00;95890.0;;;23.5;57.8
50166;BME280;36071;48.140;11.516;2022-07-23T22:42:00;95870.0;;;23.5;57.9
50166;BME280;36071;48.140;11.516;2022-07-23T22:47:00;95870.0;;;23.4;58.2
50166;BME280;36071;48.140;11.516;2022-07-23T22:52:00;95880.0;;;23.4;58.3
50166;BME280;36071;48.140;11.516;2022-07-23T22:57:00;95880.0;;;23.2;58.5
50166;BME280;36071;48.140;11.516;2022-07-23T23:02:00;95890.0;;;23.2;58.5
50166;BME280;36071;48.140;11.516;2022-07-23T23:07:00;95890.0;;;23.1;59.0
50166;BME280;36071;48.140;11.516;2022-07-23T23:12:00;95890.0;;;23.0;59.2
50166;BME280;36071;48.140;11.516;2022-07-23T23:17:00;95890.0;;;23.1;59.2
50166;BME280;36071;48.140;11.516;2022-07-23T23:22:00;95900.0;;;23.1;59.3
50166;BME280;36071;48.140;11.516;2022-07-23T23:27:00;95890.0;;;23.0;59.4
50166;BME280;36071;48.140;11.516;2022-07-23T23:32:00;95900.0;;;23.0;59.3
50166;BME280;36071;48.140;11.516;2022-07-23T23:37:00;95910.0;;;23.1;59.4
50166;BME280;36071;48.140;11.516;2022-07-23T23:47:00;95900.0;;;23.1;59.5
50166;BME280;36071;48.140;11.516;2022-07-23T23:52:00;95890.0;;;23.1;59.4
50166;BME280;36071;48.140;11.516;2022-07-23T23:57:00;95910.0;;;23.1;59.8
